Time;durP1;ratioP1;P1;durP2;ratioP2;P2;SDS_P1;SDS_P2;PMS_P1;PMS_P2;Temp;Humidity;BMP_temperature;BMP_pressure;BME280_temperature;BME280_humidity;BME280_pressure;Samples;Min_cycle;Max_cycle;Signal;HPM_P1;HPM_P2
2022/11/05 00:10:36;;;;;;;3.30;2.17;;;;;;;9.79;91.98;100451.72;5001546;28;20371;-65
2022/11/05 00:18:30;;;;;;;2.58;1.50;;;;;;;9.85;91.79;100458.38;5002090;28;20041;-65
2022/11/05 00:20:56;;;;;;;5.25;1.58;;;;;;;9.90;91.75;100460.00;5001031;28;20045;-65
2022/11/05 00:26:08;;;;;;;2.00;1.38;;;;;;;9.92;91.32;100463.91;5002506;28;20121;-65
2022/11/05 00:28:34;;;;;;;4.72;2.05;;;;;;;9.88;91.14;100471.13;5001910;28;20061;-65
2022/11/05 00:31:02;;;;;;;2.67;1.13;;;;;;;9.80;91.11;100471.31;4981717;28;20083;-65
2022/11/05 00:33:28;;;;;;;1.73;1.52;;;;;;;9.76;91.23;100470.47;5001321;28;20038;-65
2022/11/05 00:35:54;;;;;;;2.25;1.25;;;;;;;9.79;91.15;100475.91;5005597;28;20026;-64
2022/11/05 00:38:19;;;;;;;1.75;1.15;;;;;;;9.79;91.06;100480.53;4999915;28;20482;-65
2022/11/05 00:40:44;;;;;;;1.33;1.23;;;;;;;9.69;91.08;100481.88;5008739;28;20482;-65
2022/11/05 00:45:54;;;;;;;2.10;1.50;;;;;;;9.49;91.16;100482.19;4997248;28;20030;-64
2022/11/05 00:51:04;;;;;;;2.30;1.48;;;;;;;9.57;91.49;100490.06;5008325;28;20061;-64
2022/11/05 00:53:29;;;;;;;4.88;1.73;;;;;;;9.59;91.42;100489.69;5008951;28;20513;-65
2022/11/05 00:55:55;;;;;;;4.47;1.13;;;;;;;9.75;91.36;100490.44;5006347;28;20189;-66
2022/11/05 00:58:21;;;;;;;2.45;1.40;;;;;;;9.78;91.71;100487.03;5010680;28;20072;-65
2022/11/05 01:00:52;;;;;;;1.80;1.60;;;;;;;9.80;92.01;100482.06;5009881;28;20037;-66
2022/11/05 01:03:20;;;;;;;2.50;1.55;;;;;;;9.84;92.68;100488.31;5010722;28;20059;-66
2022/11/05 01:05:48;;;;;;;4.38;1.60;;;;;;;9.89;93.71;100488.81;5010690;28;20034;-66
2022/11/05 01:08:15;;;;;;;2.25;1.15;;;;;;;10.00;94.10;100483.66;5010137;28;20041;-66
2022/11/05 01:10:50;;;;;;;2.90;1.52;;;;;;;10.02;94.89;100495.63;5010150;28;20041;-66
2022/11/05 01:13:22;;;;;;;1.30;1.20;;;;;;;10.05;95.96;100499.50;5006557;28;20049;-66
2022/11/05 01:15:49;;;;;;;2.05;1.52;;;;;;;10.03;96.78;100501.75;5003314;28;20045;-66
2022/11/05 01:18:16;;;;;;;2.28;1.73;;;;;;;10.08;96.92;100503.38;5009726;28;20037;-65
2022/11/05 01:20:41;;;;;;;2.30;1.33;;;;;;;10.20;96.80;100508.66;5010338;28;20041;-66
2022/11/05 01:23:07;;;;;;;3.95;1.90;;;;;;;10.35;96.50;100503.19;4991612;28;20407;-66
2022/11/05 01:25:32;;;;;;;6.13;1.70;;;;;;;10.29;95.90;100499.22;5020754;28;20513;-66
2022/11/05 01:27:58;;;;;;;2.72;1.70;;;;;;;10.21;96.07;100500.22;5007517;28;20036;-66
2022/11/05 01:30:23;;;;;;;2.15;1.70;;;;;;;10.07;96.50;100504.50;5008660;28;20030;-65
2022/11/05 01:32:49;;;;;;;6.95;1.75;;;;;;;9.98;97.41;100494.75;5012642;28;20084;-65
2022/11/05 01:35:16;;;;;;;2.50;1.70;;;;;;;10.08;97.04;100501.50;5011454;28;20042;-65
2022/11/05 01:37:41;;;;;;;2.42;1.48;;;;;;;10.11;96.54;100508.06;5009204;28;20048;-65
2022/11/05 01:40:10;;;;;;;3.67;1.70;;;;;;;10.18;96.21;100503.63;4999359;28;20038;-65
2022/11/05 01:42:36;;;;;;;1.98;1.55;;;;;;;10.15;95.16;100496.25;5011978;28;20042;-66
2022/11/05 01:45:19;;;;;;;1.88;1.35;;;;;;;10.06;94.84;100495.69;5008942;28;20044;-66
2022/11/05 01:48:00;;;;;;;3.47;1.30;;;;;;;9.97;94.99;100498.56;5010424;28;20066;-66
2022/11/05 01:50:43;;;;;;;9.85;1.77;;;;;;;9.93;95.18;100510.38;5011223;28;20038;-66
2022/11/05 01:53:40;;;;;;;2.08;1.15;;;;;;;9.80;95.03;100506.28;5012448;28;20045;-64
2022/11/05 01:56:15;;;;;;;2.10;1.40;;;;;;;9.81;94.59;100502.47;5009178;28;20037;-64
2022/11/05 01:58:59;;;;;;;5.07;2.10;;;;;;;9.75;95.04;100504.66;5012888;28;20080;-65
2022/11/05 02:01:24;;;;;;;3.22;1.80;;;;;;;9.68;94.71;100509.88;5011252;28;20046;-65
2022/11/05 02:03:56;;;;;;;3.22;1.60;;;;;;;9.74;94.69;100505.78;4993233;28;20045;-64
2022/11/05 02:06:22;;;;;;;4.70;1.70;;;;;;;9.78;94.25;100511.22;5000246;28;20038;-65
2022/11/05 02:08:52;;;;;;;2.95;1.70;;;;;;;9.68;94.01;100519.84;5013600;28;20033;-64
2022/11/05 02:11:19;;;;;;;2.80;1.45;;;;;;;9.59;93.25;100512.00;5012187;28;20399;-64
2022/11/05 02:13:46;;;;;;;4.93;1.58;;;;;;;9.56;93.72;100515.38;5005730;28;20039;-65
2022/11/05 02:16:40;;;;;;;4.28;1.88;;;;;;;9.49;93.79;100512.53;4994171;28;20034;-65
2022/11/05 02:19:33;;;;;;;2.70;1.08;;;;;;;9.47;93.78;100511.31;5000753;28;20042;-64
2022/11/05 02:22:20;;;;;;;2.00;1.48;;;;;;;9.50;94.09;100513.31;5011170;28;20417;-64
2022/11/05 02:25:03;;;;;;;2.80;1.63;;;;;;;9.48;94.08;100512.88;5012147;28;20446;-65
2022/11/05 02:27:56;;;;;;;1.30;1.20;;;;;;;9.54;93.94;100511.50;5011579;28;20713;-65
2022/11/05 02:31:03;;;;;;;1.55;1.35;;;;;;;9.51;93.84;100506.78;4993116;28;20514;-65
2022/11/05 02:33:37;;;;;;;1.60;1.17;;;;;;;9.57;93.62;100516.94;4998146;28;20128;-65
2022/11/05 02:36:20;;;;;;;6.28;1.95;;;;;;;9.44;94.03;100520.09;5011344;28;20061;-65
2022/11/05 02:39:02;;;;;;;2.63;1.38;;;;;;;9.43;94.19;100521.19;5008484;28;20096;-64
2022/11/05 02:42:00;;;;;;;3.50;1.58;;;;;;;9.43;93.99;100519.31;5009791;28;20046;-64
2022/11/05 02:44:38;;;;;;;4.60;1.70;;;;;;;9.40;93.60;100516.53;5006807;28;20499;-64
2022/11/05 02:47:09;;;;;;;5.13;2.60;;;;;;;9.33;93.67;100519.84;5007775;28;20432;-64
2022/11/05 02:49:46;;;;;;;5.70;1.48;;;;;;;9.34;93.15;100518.72;5012330;28;20049;-64
2022/11/05 02:52:19;;;;;;;3.30;1.67;;;;;;;9.22;92.73;100516.13;5012507;28;20461;-64
2022/11/05 02:54:57;;;;;;;3.40;1.42;;;;;;;9.13;92.56;100515.53;5006237;28;20034;-64
2022/11/05 02:57:23;;;;;;;1.27;1.17;;;;;;;9.16;92.76;100514.84;4998445;28;20038;-64
2022/11/05 02:59:59;;;;;;;2.70;1.52;;;;;;;9.12;92.11;100510.53;5002211;28;20018;-65
2022/11/05 03:02:25;;;;;;;1.98;1.45;;;;;;;9.00;92.48;100511.41;4991811;28;20033;-65
2022/11/05 03:04:50;;;;;;;2.63;1.50;;;;;;;8.90;92.46;100510.00;5009584;28;20092;-65
2022/11/05 03:07:37;;;;;;;7.63;1.35;;;;;;;8.92;92.55;100502.38;5010245;28;20052;-65
2022/11/05 03:10:12;;;;;;;3.38;1.73;;;;;;;8.96;92.12;100508.59;5010049;28;20045;-65
2022/11/05 03:13:07;;;;;;;3.90;1.52;;;;;;;8.81;91.80;100512.06;5025884;22;20497;-71
2022/11/05 03:16:01;;;;;;;2.90;1.05;;;;;;;8.80;91.65;100518.59;5005394;28;20414;-71
2022/11/05 03:18:45;;;;;;;1.30;1.20;;;;;;;8.84;91.46;100516.78;5010527;28;20643;-71
2022/11/05 03:21:30;;;;;;;3.15;1.50;;;;;;;8.71;91.32;100523.31;5011149;28;20066;-71
2022/11/05 03:23:59;;;;;;;1.73;1.27;;;;;;;8.64;91.61;100525.84;4992157;28;20095;-71
2022/11/05 03:26:32;;;;;;;2.15;1.30;;;;;;;8.63;91.49;100526.94;4985684;28;20042;-71
2022/11/05 03:29:02;;;;;;;1.50;1.20;;;;;;;8.61;91.48;100529.22;4986224;28;20058;-70
2022/11/05 03:31:30;;;;;;;1.57;1.00;;;;;;;8.46;91.85;100531.88;4987366;28;20080;-71
2022/11/05 03:33:59;;;;;;;2.08;1.38;;;;;;;8.48;91.99;100541.13;4987790;28;20174;-71
2022/11/05 03:36:32;;;;;;;3.85;1.60;;;;;;;8.54;91.57;100545.13;4990992;28;20042;-71
2022/11/05 03:39:03;;;;;;;3.20;1.58;;;;;;;8.47;91.69;100547.63;4979298;28;20390;-72
2022/11/05 03:41:31;;;;;;;;;;;;;;;8.46;92.42;100550.66;4988092;28;20125;-71
2022/11/05 03:44:03;;;;;;;1.27;1.00;;;;;;;8.47;92.32;100549.53;4968446;28;20294;-71
2022/11/05 03:46:40;;;;;;;1.55;1.42;;;;;;;8.44;92.25;100545.59;4988687;28;20030;-71
2022/11/05 03:49:10;;;;;;;2.08;1.55;;;;;;;8.40;92.46;100560.81;4990621;28;20073;-71
2022/11/05 03:51:47;;;;;;;3.72;1.42;;;;;;;8.42;92.43;100563.19;4991207;28;20142;-71
2022/11/05 03:54:13;;;;;;;2.05;1.50;;;;;;;8.46;92.23;100561.38;5000241;28;20046;-71
2022/11/05 03:57:03;;;;;;;1.52;1.13;;;;;;;8.48;91.28;100561.81;4985812;28;20030;-71
2022/11/05 03:59:31;;;;;;;1.65;1.38;;;;;;;8.35;91.67;100562.97;4986966;28;20077;-71
2022/11/05 04:01:57;;;;;;;2.80;1.27;;;;;;;8.37;91.55;100558.84;4987135;28;20047;-71
2022/11/05 04:04:22;;;;;;;1.90;1.50;;;;;;;8.44;91.72;100566.31;4990898;28;20041;-72
2022/11/05 04:14:59;;;;;;;1.20;1.10;;;;;;;8.23;91.53;100563.78;4983774;28;20113;-72
2022/11/05 04:17:25;;;;;;;1.50;1.40;;;;;;;8.14;91.30;100555.09;4989526;28;20117;-72
2022/11/05 04:25:21;;;;;;;1.58;1.35;;;;;;;8.08;91.74;100567.19;4981855;28;20038;-71
2022/11/05 04:27:47;;;;;;;2.90;1.70;;;;;;;8.05;91.96;100562.50;4990342;28;20038;-71
2022/11/05 04:30:17;;;;;;;1.58;1.45;;;;;;;8.10;91.96;100563.06;4978506;28;20035;-72
2022/11/05 04:33:13;;;;;;;3.40;1.80;;;;;;;8.09;91.75;100566.84;5006163;28;20040;-71
2022/11/05 04:35:43;;;;;;;4.40;1.58;;;;;;;8.15;91.55;100570.06;4990381;28;20046;-71
2022/11/05 04:38:11;;;;;;;2.28;1.23;;;;;;;8.11;91.17;100569.16;4979398;28;20038;-72
2022/11/05 04:40:37;;;;;;;4.55;1.15;;;;;;;8.15;91.13;100576.22;4981481;28;20053;-71
2022/11/05 04:43:03;;;;;;;1.88;1.35;;;;;;;8.16;90.77;100571.63;4987183;28;20493;-72
2022/11/05 04:45:33;;;;;;;1.65;1.40;;;;;;;8.01;90.60;100588.44;4984114;28;20113;-71
2022/11/05 04:47:59;;;;;;;1.52;1.23;;;;;;;7.94;90.71;100586.31;4978044;28;20492;-71
2022/11/05 04:50:24;;;;;;;5.20;2.00;;;;;;;7.94;90.84;100590.91;4957030;28;20031;-71
2022/11/05 04:52:50;;;;;;;1.38;1.20;;;;;;;7.85;90.85;100587.56;4971563;28;20042;-72
2022/11/05 04:55:15;;;;;;;2.45;1.55;;;;;;;7.86;91.09;100589.13;4977964;28;20117;-71
2022/11/05 04:57:41;;;;;;;3.00;1.40;;;;;;;7.89;91.25;100588.47;4989896;28;20406;-71
2022/11/05 05:00:07;;;;;;;2.47;1.38;;;;;;;7.92;91.41;100582.41;4990249;28;20080;-72
2022/11/05 05:02:33;;;;;;;5.13;1.92;;;;;;;8.01;90.85;100589.19;4985401;28;20041;-71
2022/11/05 05:04:59;;;;;;;1.08;0.98;;;;;;;8.10;91.35;100595.22;4989440;28;20033;-72
2022/11/05 05:07:25;;;;;;;2.58;1.58;;;;;;;8.10;90.54;100605.16;4977179;28;20498;-72
2022/11/05 05:09:51;;;;;;;3.33;1.88;;;;;;;8.07;90.64;100597.81;4993588;28;20034;-71
2022/11/05 05:12:17;;;;;;;2.53;1.38;;;;;;;8.20;91.34;100594.75;4987190;28;20039;-71
2022/11/05 05:14:42;;;;;;;6.30;2.00;;;;;;;8.20;91.09;100596.66;4993108;28;20372;-71
2022/11/05 05:17:07;;;;;;;2.80;1.73;;;;;;;8.14;90.65;100596.13;4981683;28;20494;-71
2022/11/05 05:21:37;;;;;;;1.65;1.33;;;;;;;8.23;90.93;100603.25;4979697;28;20491;-71
2022/11/05 05:22:18;;;;;;;7.38;2.03;;;;;;;8.18;90.89;100605.06;4994500;28;20054;-73
2022/11/05 05:24:43;;;;;;;2.45;1.65;;;;;;;8.13;91.22;100601.78;4994272;28;20411;-71
2022/11/05 05:27:09;;;;;;;2.63;1.48;;;;;;;7.98;91.81;100607.88;4991224;28;20461;-71
2022/11/05 05:29:34;;;;;;;4.60;1.95;;;;;;;8.06;91.86;100607.75;4992488;28;20101;-71
2022/11/05 05:32:00;;;;;;;2.65;1.88;;;;;;;8.02;91.84;100609.53;4992720;28;20038;-71
2022/11/05 05:34:28;;;;;;;2.53;1.95;;;;;;;8.08;91.98;100612.78;4991367;28;20122;-71
2022/11/05 05:36:53;;;;;;;3.28;1.80;;;;;;;7.99;91.43;100614.81;4994150;28;20527;-71
2022/11/05 05:39:19;;;;;;;4.18;2.10;;;;;;;8.05;91.97;100613.47;4994854;28;20061;-72
2022/11/05 05:41:44;;;;;;;4.22;2.10;;;;;;;8.09;91.73;100611.66;4992768;28;20430;-71
2022/11/05 05:44:10;;;;;;;3.20;1.80;;;;;;;8.09;92.00;100620.47;4989892;28;21778;-71
2022/11/05 05:46:38;;;;;;;3.10;1.52;;;;;;;8.02;92.02;100619.47;4985160;28;20038;-72
2022/11/05 05:49:04;;;;;;;3.00;1.63;;;;;;;7.96;91.91;100623.50;4978340;28;20023;-72
2022/11/05 05:51:29;;;;;;;2.13;1.48;;;;;;;7.88;92.41;100624.41;4973265;28;20403;-71
2022/11/05 05:53:54;;;;;;;3.88;2.05;;;;;;;7.92;92.17;100628.78;4983611;28;20057;-73
2022/11/05 05:56:20;;;;;;;3.50;1.50;;;;;;;8.04;92.14;100634.13;4987447;28;20038;-71
2022/11/05 05:58:46;;;;;;;3.50;1.98;;;;;;;8.00;91.77;100632.44;4992636;28;20085;-72
2022/11/05 06:01:14;;;;;;;3.28;1.83;;;;;;;8.00;91.72;100637.81;4998269;28;20046;-71
2022/11/05 06:03:40;;;;;;;2.47;1.70;;;;;;;8.05;92.07;100640.28;4981398;28;20369;-71
2022/11/05 06:06:12;;;;;;;4.18;2.47;;;;;;;7.97;91.68;100636.59;4974119;28;20066;-70
2022/11/05 06:08:38;;;;;;;5.20;2.42;;;;;;;7.97;92.30;100631.25;4992322;28;20113;-71
2022/11/05 06:11:04;;;;;;;2.00;1.48;;;;;;;7.98;92.29;100643.50;4985077;28;20454;-71
2022/11/05 06:13:30;;;;;;;3.55;1.65;;;;;;;8.04;92.93;100644.06;4992686;28;20037;-70
2022/11/05 06:16:07;;;;;;;5.10;2.17;;;;;;;8.12;92.73;100646.63;4983848;28;20495;-71
2022/11/05 06:18:33;;;;;;;3.90;1.60;;;;;;;8.13;92.47;100650.06;4991736;28;20101;-71
2022/11/05 06:21:08;;;;;;;3.65;2.13;;;;;;;8.09;92.36;100651.88;4979836;28;20045;-72
2022/11/05 06:23:35;;;;;;;3.45;1.88;;;;;;;8.05;92.44;100651.00;4992931;28;20038;-71
2022/11/05 06:26:06;;;;;;;2.17;1.42;;;;;;;7.97;92.72;100658.06;4988857;28;20069;-72
2022/11/05 06:28:32;;;;;;;3.15;1.75;;;;;;;7.94;92.42;100653.34;4978991;28;20439;-71
2022/11/05 06:30:58;;;;;;;3.35;2.00;;;;;;;7.99;92.35;100661.16;4980466;28;20049;-71
2022/11/05 06:33:24;;;;;;;3.10;1.52;;;;;;;7.85;92.56;100660.72;4991376;28;20121;-72
2022/11/05 06:35:50;;;;;;;2.95;1.92;;;;;;;7.94;92.86;100665.97;4985286;28;20026;-71
2022/11/05 06:38:15;;;;;;;4.45;1.98;;;;;;;7.90;93.20;100662.38;4993393;28;20537;-72
2022/11/05 06:40:40;;;;;;;4.55;2.35;;;;;;;7.87;94.05;100665.75;4993830;28;20470;-71
2022/11/05 06:43:06;;;;;;;3.47;1.60;;;;;;;7.94;93.62;100666.75;4987565;28;20395;-71
2022/11/05 06:45:31;;;;;;;3.65;1.67;;;;;;;7.91;93.36;100669.31;4972586;28;20521;-72
2022/11/05 06:47:58;;;;;;;3.67;1.63;;;;;;;7.94;93.77;100676.69;4990381;28;20070;-70
2022/11/05 06:50:25;;;;;;;2.88;2.03;;;;;;;7.94;93.31;100674.00;4991417;28;20499;-73
2022/11/05 06:52:58;;;;;;;3.40;2.47;;;;;;;7.98;94.08;100685.63;4990744;28;20026;-71
2022/11/05 06:55:24;;;;;;;3.20;2.20;;;;;;;7.97;94.00;100682.19;4983225;28;20034;-71
2022/11/05 06:57:50;;;;;;;4.43;1.92;;;;;;;7.98;94.18;100683.72;4988399;28;20109;-71
2022/11/05 07:00:17;;;;;;;4.70;1.60;;;;;;;8.01;93.77;100683.03;4987715;28;20125;-71
2022/11/05 07:02:42;;;;;;;2.40;1.40;;;;;;;8.08;94.15;100682.50;4988175;28;20057;-71
2022/11/05 07:05:10;;;;;;;2.28;1.52;;;;;;;8.10;93.96;100686.41;4988636;28;20030;-72
2022/11/05 07:07:36;;;;;;;4.80;1.75;;;;;;;8.09;94.87;100694.81;4988320;28;20053;-71
2022/11/05 07:10:02;;;;;;;3.60;2.17;;;;;;;8.13;94.73;100703.72;4991106;28;20042;-71
2022/11/05 07:12:28;;;;;;;3.40;1.80;;;;;;;8.13;94.84;100692.97;4992187;28;20030;-71
2022/11/05 07:14:53;;;;;;;5.18;2.58;;;;;;;8.04;94.55;100701.16;4967213;28;20387;-71
2022/11/05 07:17:18;;;;;;;3.33;2.10;;;;;;;8.05;95.29;100701.94;4991339;28;20034;-72
2022/11/05 07:19:44;;;;;;;3.40;2.17;;;;;;;8.14;95.02;100708.75;4992677;28;20089;-71
2022/11/05 07:22:09;;;;;;;5.35;2.63;;;;;;;8.16;95.21;100705.72;4992359;28;20038;-71
2022/11/05 07:24:34;;;;;;;5.15;2.05;;;;;;;8.21;95.30;100718.91;4988707;28;20120;-72
2022/11/05 07:27:00;;;;;;;3.38;2.13;;;;;;;8.16;94.95;100727.19;4973675;28;20054;-71
2022/11/05 07:29:25;;;;;;;2.35;1.83;;;;;;;8.20;95.19;100715.47;4971383;28;20054;-72
2022/11/05 07:31:50;;;;;;;3.40;2.00;;;;;;;8.19;95.45;100721.94;4985995;28;20034;-72
2022/11/05 07:34:16;;;;;;;4.50;2.33;;;;;;;8.11;96.81;100716.66;4989477;28;20041;-71
2022/11/05 07:36:41;;;;;;;5.72;2.25;;;;;;;8.21;96.49;100722.38;4997428;28;20035;-72
2022/11/05 07:39:07;;;;;;;3.75;2.13;;;;;;;8.34;96.21;100720.50;4984480;28;20042;-71
2022/11/05 07:41:33;;;;;;;8.23;2.53;;;;;;;8.40;96.12;100721.06;4986631;28;20038;-71
2022/11/05 07:43:58;;;;;;;1.73;1.42;;;;;;;8.45;95.84;100734.22;4984023;28;20645;-71
2022/11/05 07:46:24;;;;;;;4.35;1.90;;;;;;;8.44;96.08;100733.44;4986900;28;20043;-72
2022/11/05 07:48:49;;;;;;;1.92;1.48;;;;;;;8.45;96.32;100734.22;4980379;28;20061;-72
2022/11/05 07:51:14;;;;;;;6.80;1.90;;;;;;;8.51;96.40;100730.97;4988132;28;20096;-71
2022/11/05 07:53:40;;;;;;;4.05;2.33;;;;;;;8.57;96.17;100731.53;4981154;28;20447;-71
2022/11/05 07:56:05;;;;;;;3.92;1.90;;;;;;;8.55;96.56;100729.19;4980996;28;20043;-71
2022/11/05 07:58:32;;;;;;;2.00;1.70;;;;;;;8.61;97.19;100737.78;4982620;28;20034;-71
2022/11/05 08:00:57;;;;;;;5.00;1.92;;;;;;;8.70;97.70;100731.16;4983611;28;20125;-71
2022/11/05 08:03:23;;;;;;;7.05;2.47;;;;;;;8.82;98.18;100727.66;4984894;28;20116;-71
2022/11/05 08:05:48;;;;;;;3.00;1.75;;;;;;;8.81;98.38;100740.28;4984375;28;20042;-72
2022/11/05 08:08:17;;;;;;;3.85;1.67;;;;;;;9.06;99.15;100739.09;4985271;28;20022;-72
2022/11/05 08:10:42;;;;;;;2.22;1.58;;;;;;;9.45;98.21;100740.13;4980466;28;20069;-72
2022/11/05 08:13:08;;;;;;;6.30;1.83;;;;;;;9.76;97.65;100742.06;4986951;28;20523;-72
2022/11/05 08:15:35;;;;;;;4.15;2.22;;;;;;;10.20;97.99;100753.53;4978618;28;20035;-71
2022/11/05 08:18:02;;;;;;;3.83;2.22;;;;;;;10.43;96.52;100747.13;4984063;28;20121;-72
2022/11/05 08:20:27;;;;;;;4.75;2.25;;;;;;;10.51;94.11;100742.72;4986537;28;20376;-71
2022/11/05 08:22:53;;;;;;;3.95;1.60;;;;;;;10.40;93.21;100741.69;4977036;28;20069;-71
2022/11/05 08:25:19;;;;;;;4.00;2.15;;;;;;;10.41;91.87;100740.56;4986917;28;20042;-71
2022/11/05 08:27:44;;;;;;;4.30;2.03;;;;;;;10.43;92.04;100746.38;4984451;28;20042;-71
2022/11/05 08:30:10;;;;;;;3.65;1.90;;;;;;;10.58;92.93;100750.94;4987215;28;20037;-71
2022/11/05 08:32:36;;;;;;;3.05;2.10;;;;;;;10.66;91.51;100756.13;4985273;28;20487;-71
2022/11/05 08:35:01;;;;;;;4.95;2.30;;;;;;;10.85;91.02;100758.84;4990240;28;20545;-72
2022/11/05 08:37:27;;;;;;;3.28;1.73;;;;;;;10.84;91.54;100762.66;4986959;28;20077;-72
2022/11/05 08:39:52;;;;;;;4.22;2.28;;;;;;;10.94;90.15;100760.56;4984647;28;20113;-72
2022/11/05 08:42:18;;;;;;;4.63;1.92;;;;;;;11.09;90.16;100765.09;4988524;28;20051;-72
2022/11/05 08:44:43;;;;;;;4.68;2.58;;;;;;;11.22;89.96;100761.91;4987981;28;20073;-72
2022/11/05 08:47:08;;;;;;;3.97;2.28;;;;;;;11.21;90.15;100767.63;4989583;28;20054;-71
2022/11/05 08:49:34;;;;;;;3.50;2.13;;;;;;;11.30;89.49;100773.59;4988114;28;20026;-72
2022/11/05 08:51:59;;;;;;;3.30;1.95;;;;;;;11.34;89.39;100769.06;4987721;28;20482;-73
2022/11/05 08:54:25;;;;;;;5.97;1.92;;;;;;;11.36;89.91;100772.94;4975941;28;20050;-71
2022/11/05 08:56:50;;;;;;;1.95;1.33;;;;;;;11.47;89.56;100781.22;4987000;28;20074;-72
2022/11/05 08:59:15;;;;;;;4.75;2.00;;;;;;;11.54;89.08;100776.75;4981747;28;20034;-73
2022/11/05 09:01:41;;;;;;;6.47;2.25;;;;;;;11.62;88.40;100774.94;4978031;28;20046;-73
2022/11/05 09:04:06;;;;;;;2.65;1.95;;;;;;;11.66;88.52;100779.31;4980445;28;20043;-72
2022/11/05 09:06:32;;;;;;;3.47;1.70;;;;;;;11.87;88.50;100784.28;4977252;28;20046;-73
2022/11/05 09:08:57;;;;;;;2.92;1.80;;;;;;;11.96;88.07;100790.25;4988682;28;20038;-71
2022/11/05 09:11:23;;;;;;;1.92;1.50;;;;;;;12.18;88.13;100778.63;4975125;28;20058;-72
2022/11/05 09:13:48;;;;;;;3.28;1.80;;;;;;;12.29;86.71;100776.88;5040278;22;20038;-65
2022/11/05 09:16:20;;;;;;;2.47;1.40;;;;;;;12.40;87.00;100777.84;5026802;28;20036;-64
2022/11/05 09:18:45;;;;;;;3.80;1.92;;;;;;;12.52;86.05;100783.00;5017274;28;20040;-64
2022/11/05 09:21:11;;;;;;;2.70;1.27;;;;;;;12.66;86.24;100780.50;5022252;28;20404;-65
2022/11/05 09:23:36;;;;;;;1.92;1.20;;;;;;;12.70;84.63;100781.34;5029925;28;20034;-65
2022/11/05 09:26:02;;;;;;;5.22;1.73;;;;;;;12.82;85.11;100780.34;5028536;28;20037;-65
2022/11/05 09:28:27;;;;;;;3.40;1.50;;;;;;;12.93;84.65;100781.25;4993688;28;20042;-65
2022/11/05 09:30:53;;;;;;;2.30;1.60;;;;;;;12.78;84.95;100786.84;5017439;28;20076;-65
2022/11/05 09:33:21;;;;;;;5.30;1.73;;;;;;;12.93;84.42;100794.00;4990438;28;20042;-65
2022/11/05 09:35:47;;;;;;;9.77;1.55;;;;;;;13.06;84.25;100787.25;5008007;28;20037;-65
2022/11/05 09:38:13;;;;;;;5.50;1.52;;;;;;;13.12;84.03;100788.47;4995742;28;20015;-65
2022/11/05 09:40:53;;;;;;;1.67;1.42;;;;;;;13.22;83.58;100791.28;4990793;28;20438;-65
2022/11/05 09:43:22;;;;;;;2.13;1.35;;;;;;;13.27;83.67;100787.50;4995213;28;20113;-65
2022/11/05 09:45:52;;;;;;;1.63;1.25;;;;;;;13.34;83.53;100788.34;5002892;28;20041;-65
2022/11/05 09:48:23;;;;;;;1.58;0.98;;;;;;;13.53;82.99;100800.91;4990719;28;20494;-65
2022/11/05 09:50:51;;;;;;;1.17;0.75;;;;;;;13.55;83.09;100802.09;4990812;28;20048;-65
2022/11/05 09:53:18;;;;;;;1.73;0.63;;;;;;;13.50;82.26;100799.75;5004596;28;20041;-65
2022/11/05 09:55:47;;;;;;;2.17;0.82;;;;;;;13.70;81.84;100805.75;5011853;28;20037;-65
2022/11/05 09:58:33;;;;;;;1.00;1.00;;;;;;;13.79;81.48;100813.56;5012474;28;20033;-65
2022/11/05 10:00:59;;;;;;;0.63;0.55;;;;;;;13.83;80.33;100815.16;5014648;28;20052;-65
2022/11/05 10:03:27;;;;;;;1.40;0.70;;;;;;;13.87;80.43;100807.84;5014004;28;20488;-65
2022/11/05 10:05:54;;;;;;;0.85;0.70;;;;;;;13.95;80.41;100817.59;5012952;28;20121;-65
2022/11/05 10:08:28;;;;;;;1.15;0.60;;;;;;;13.99;80.06;100823.81;5007831;28;20056;-65
2022/11/05 10:11:09;;;;;;;1.02;0.57;;;;;;;14.09;79.76;100828.53;5007308;28;20409;-65
2022/11/05 10:13:39;;;;;;;2.53;0.50;;;;;;;14.11;79.61;100826.22;5009949;28;20038;-66
2022/11/05 10:16:22;;;;;;;3.55;1.02;;;;;;;14.10;78.42;100830.09;5001425;28;20097;-65
2022/11/05 10:18:54;;;;;;;3.10;0.90;;;;;;;14.19;78.38;100830.56;5003488;28;20398;-65
2022/11/05 10:21:19;;;;;;;2.05;1.13;;;;;;;14.15;78.14;100829.75;4999970;28;20042;-65
2022/11/05 10:23:46;;;;;;;2.85;0.93;;;;;;;14.02;77.45;100839.31;4996750;28;20453;-65
2022/11/05 10:26:19;;;;;;;2.38;0.90;;;;;;;14.15;77.86;100837.13;4993958;28;20034;-65
2022/11/05 10:28:45;;;;;;;2.88;0.80;;;;;;;14.26;77.58;100835.28;5006295;28;20018;-65
2022/11/05 10:31:19;;;;;;;2.30;0.80;;;;;;;14.28;76.80;100833.78;5006299;28;20026;-65
2022/11/05 10:33:46;;;;;;;5.30;0.60;;;;;;;14.31;76.68;100833.00;5009084;28;20036;-65
2022/11/05 10:36:19;;;;;;;0.70;0.70;;;;;;;14.30;76.92;100831.44;5007836;28;20101;-64
2022/11/05 10:38:45;;;;;;;1.60;0.60;;;;;;;14.26;76.31;100838.75;5010658;28;20026;-65
2022/11/05 10:41:29;;;;;;;5.47;0.50;;;;;;;14.21;75.95;100832.88;5008479;28;20044;-65
2022/11/05 10:44:12;;;;;;;1.52;0.68;;;;;;;14.17;76.01;100827.44;5006111;28;20125;-64
2022/11/05 10:46:48;;;;;;;1.98;1.05;;;;;;;14.27;75.92;100837.63;5001143;28;20034;-64
2022/11/05 10:49:47;;;;;;;1.02;0.70;;;;;;;14.31;75.42;100829.53;4991108;28;20050;-64
2022/11/05 10:52:24;;;;;;;3.78;0.60;;;;;;;14.44;75.63;100828.84;4995466;28;20120;-64
2022/11/05 10:54:52;;;;;;;2.08;0.57;;;;;;;14.50;75.41;100831.22;5000301;28;20471;-64
2022/11/05 10:57:33;;;;;;;0.57;0.57;;;;;;;14.18;74.54;100831.72;4993352;28;20495;-64
2022/11/05 11:00:14;;;;;;;2.75;0.63;;;;;;;14.35;74.71;100833.03;4997391;28;21202;-64
2022/11/05 11:02:59;;;;;;;2.83;0.70;;;;;;;14.43;74.97;100821.09;5011112;28;20061;-64
2022/11/05 11:05:28;;;;;;;2.30;0.43;;;;;;;14.37;75.37;100834.22;4993914;28;20030;-64
2022/11/05 11:08:09;;;;;;;1.05;0.65;;;;;;;14.45;75.34;100822.28;4998722;28;20085;-64
2022/11/05 11:10:48;;;;;;;4.22;0.52;;;;;;;14.40;74.06;100825.34;4994762;28;20478;-64
2022/11/05 11:13:55;;;;;;;1.85;0.68;;;;;;;14.44;73.81;100833.50;4992015;28;20034;-66
2022/11/05 11:16:23;;;;;;;0.60;0.45;;;;;;;14.45;75.18;100832.34;4997223;28;20406;-64
2022/11/05 11:18:55;;;;;;;6.07;0.60;;;;;;;14.40;74.45;100841.59;4994042;28;20097;-64
2022/11/05 11:21:25;;;;;;;0.93;0.32;;;;;;;14.42;74.23;100836.59;4992957;28;20042;-64
2022/11/05 11:24:01;;;;;;;1.58;0.63;;;;;;;14.35;73.86;100836.53;4993260;28;20109;-64
2022/11/05 11:26:34;;;;;;;2.83;0.60;;;;;;;14.33;73.79;100829.94;4992378;28;20038;-64
2022/11/05 11:29:14;;;;;;;4.15;0.70;;;;;;;14.29;73.80;100837.25;5024213;28;20438;-64
2022/11/05 11:31:43;;;;;;;2.15;0.50;;;;;;;14.26;74.17;100843.41;4991339;28;20108;-64
2022/11/05 11:34:19;;;;;;;0.55;0.43;;;;;;;14.16;74.14;100833.25;5001136;28;20034;-64
2022/11/05 11:36:46;;;;;;;3.30;0.60;;;;;;;14.05;74.94;100827.72;5000173;28;20057;-64
2022/11/05 11:39:20;;;;;;;0.38;0.38;;;;;;;14.19;74.81;100833.25;5001802;28;20029;-64
2022/11/05 11:41:51;;;;;;;0.63;0.60;;;;;;;14.20;74.74;100834.06;5002806;28;20046;-64
2022/11/05 11:44:25;;;;;;;1.80;0.50;;;;;;;14.20;74.78;100839.47;4999966;28;20041;-64
2022/11/05 11:46:59;;;;;;;0.73;0.47;;;;;;;14.33;74.39;100841.56;5001036;28;20046;-64
2022/11/05 11:49:35;;;;;;;3.45;0.55;;;;;;;14.11;73.37;100841.72;4998573;28;20037;-66
2022/11/05 11:52:08;;;;;;;0.40;0.35;;;;;;;14.15;73.25;100834.41;5016012;28;20038;-64
2022/11/05 11:54:34;;;;;;;1.63;0.75;;;;;;;14.11;73.48;100847.91;4995196;28;20715;-64
2022/11/05 11:56:59;;;;;;;3.15;0.60;;;;;;;14.08;73.82;100837.03;4994941;28;20100;-64
2022/11/05 11:59:27;;;;;;;1.08;0.60;;;;;;;14.11;73.98;100831.66;5001055;28;20041;-64
2022/11/05 12:02:16;;;;;;;0.55;0.50;;;;;;;14.19;73.92;100833.25;4998726;28;20136;-64
2022/11/05 12:05:00;;;;;;;2.63;0.70;;;;;;;14.28;74.35;100836.50;4998747;28;20038;-64
2022/11/05 12:07:37;;;;;;;1.33;0.70;;;;;;;14.13;73.64;100831.28;4990926;28;20384;-64
2022/11/05 12:10:19;;;;;;;5.75;0.68;;;;;;;14.24;73.90;100838.34;4993292;28;20076;-64
2022/11/05 12:12:56;;;;;;;1.88;0.60;;;;;;;14.18;74.01;100839.06;4995117;28;20083;-64
2022/11/05 12:15:40;;;;;;;3.53;0.90;;;;;;;14.14;74.64;100840.97;4991625;28;21552;-64
2022/11/05 12:18:17;;;;;;;0.90;0.57;;;;;;;14.06;74.81;100836.63;4996070;28;21133;-64
2022/11/05 12:21:21;;;;;;;1.23;0.90;;;;;;;14.13;73.53;100848.31;4992778;28;20521;-64